Time;durP1;ratioP1;P1;durP2;ratioP2;P2;SDS_P1;SDS_P2;PMS_P1;PMS_P2;Temp;Humidity;BMP_temperature;BMP_pressure;BME280_temperature;BME280_humidity;BME280_pressure;Samples;Min_cycle;Max_cycle;Signal;HPM_P1;HPM_P2
2023/12/18 00:01:24;;;;;;;;;;;;;;;1.13;100.00;98340.13;5064597;28;19940;-69
2023/12/18 00:03:50;;;;;;;;;;;;;;;1.11;100.00;98336.00;5064980;28;19947;-68
2023/12/18 00:06:15;;;;;;;;;;;;;;;1.08;100.00;98334.47;5064957;28;19961;-68
2023/12/18 00:08:41;;;;;;;;;;;;;;;1.08;100.00;98334.47;5063847;28;19969;-68
2023/12/18 00:11:07;;;;;;;;;;;;;;;1.05;100.00;98331.28;5064454;28;20320;-68
2023/12/18 00:13:33;;;;;;;;;;;;;;;1.02;100.00;98320.22;5064604;28;19966;-68
2023/12/18 00:15:59;;;;;;;;;;;;;;;1.00;100.00;98319.50;5046198;28;19955;-74
2023/12/18 00:18:24;;;;;;;;;;;;;;;0.98;100.00;98316.22;5064555;28;19956;-71
2023/12/18 00:20:52;;;;;;;;;;;;;;;0.96;100.00;98319.84;5064190;28;20245;-71
2023/12/18 00:23:18;;;;;;;;;;;;;;;0.94;100.00;98319.97;5064608;28;19957;-71
2023/12/18 00:25:44;;;;;;;;;;;;;;;0.91;100.00;98315.03;5064473;28;19959;-71
2023/12/18 00:28:10;;;;;;;;;;;;;;;0.88;100.00;98302.31;5064577;28;19964;-71
2023/12/18 00:30:35;;;;;;;;;;;;;;;0.88;100.00;98314.41;5064752;28;19949;-71
2023/12/18 00:33:01;;;;;;;;;;;;;;;0.85;100.00;98315.47;5064386;28;19968;-70
2023/12/18 00:35:28;;;;;;;;;;;;;;;0.84;100.00;98312.97;5064429;28;19982;-74
2023/12/18 00:37:54;;;;;;;;;;;;;;;0.84;100.00;98311.25;5064683;28;19967;-78
2023/12/18 00:40:20;;;;;;;;;;;;;;;0.84;100.00;98312.97;5064253;28;19958;-77
2023/12/18 00:42:47;;;;;;;;;;;;;;;0.84;100.00;98311.25;5064104;28;19959;-78
2023/12/18 00:45:16;;;;;;;;;;;;;;;0.83;100.00;98311.34;5064375;28;19951;-78
2023/12/18 00:47:42;;;;;;;;;;;;;;;0.82;100.00;98310.53;5064015;28;19961;-78
2023/12/18 00:50:09;;;;;;;;;;;;;;;0.77;100.00;98305.69;5064350;28;20022;-78
2023/12/18 00:52:36;;;;;;;;;;;;;;;0.75;100.00;98304.97;5064133;28;19969;-71
2023/12/18 00:55:01;;;;;;;;;;;;;;;0.72;100.00;98307.78;5064307;28;19957;-71
2023/12/18 00:57:28;;;;;;;;;;;;;;;0.68;100.00;98306.34;5063546;28;20284;-71
2023/12/18 00:59:53;;;;;;;;;;;;;;;0.64;100.00;98311.84;5063706;28;19939;-71
2023/12/18 01:02:19;;;;;;;;;;;;;;;0.59;100.00;98307.84;5063696;28;19953;-71
2023/12/18 01:04:45;;;;;;;;;;;;;;;0.55;100.00;98308.97;5063939;28;20051;-71
2023/12/18 01:07:11;;;;;;;;;;;;;;;0.53;100.00;98312.59;5045688;28;19958;-71
2023/12/18 01:09:37;;;;;;;;;;;;;;;0.50;100.00;98317.97;5063671;28;19962;-71
2023/12/18 01:12:03;;;;;;;;;;;;;;;0.47;100.00;98306.09;5063808;28;19966;-77
2023/12/18 01:14:29;;;;;;;;;;;;;;;0.44;100.00;98306.31;5063901;28;19957;-81
2023/12/18 01:16:55;;;;;;;;;;;;;;;0.42;100.00;98304.78;5064143;28;19952;-81
2023/12/18 01:19:21;;;;;;;;;;;;;;;0.38;100.00;98299.03;5063922;28;19956;-80
2023/12/18 01:21:47;;;;;;;;;;;;;;;0.36;100.00;98296.53;5063923;28;19948;-81
2023/12/18 01:24:13;;;;;;;;;;;;;;;0.36;100.00;98296.53;5063895;28;19959;-81
2023/12/18 01:26:39;;;;;;;;;;;;;;;0.40;100.00;98300.56;5064901;28;19959;-80
2023/12/18 01:29:05;;;;;;;;;;;;;;;0.42;100.00;98297.03;5068071;28;20173;-74
2023/12/18 01:31:30;;;;;;;;;;;;;;;0.43;100.00;98296.13;5067551;28;19961;-76
2023/12/18 01:33:57;;;;;;;;;;;;;;;0.44;100.00;98305.50;5067866;28;20259;-81
2023/12/18 01:36:23;;;;;;;;;;;;;;;0.42;100.00;98300.47;5068010;28;19955;-81
2023/12/18 01:38:49;;;;;;;;;;;;;;;0.44;100.00;98302.91;5067588;28;19964;-81
2023/12/18 01:41:15;;;;;;;;;;;;;;;0.43;100.00;98309.84;5067502;28;19959;-82
2023/12/18 01:43:41;;;;;;;;;;;;;;;0.42;100.00;98305.63;5067462;28;20252;-82
2023/12/18 01:46:07;;;;;;;;;;;;;;;0.42;100.00;98304.78;5067847;28;20243;-81
2023/12/18 01:48:33;;;;;;;;;;;;;;;0.40;100.00;98305.72;5067402;28;19988;-74
2023/12/18 01:51:00;;;;;;;;;;;;;;;0.42;100.00;98302.19;5067385;28;20106;-72
2023/12/18 01:53:28;;;;;;;;;;;;;;;0.37;100.00;98295.59;5067462;28;19965;-72
2023/12/18 01:55:54;;;;;;;;;;;;;;;0.35;100.00;98294.88;5067457;28;19958;-72
2023/12/18 01:58:20;;;;;;;;;;;;;;;0.34;100.00;98295.00;5067443;28;19939;-72
2023/12/18 02:00:47;;;;;;;;;;;;;;;0.31;100.00;98288.28;5066938;28;19953;-71
2023/12/18 02:03:15;;;;;;;;;;;;;;;0.30;100.00;98291.00;5067398;28;19960;-72
2023/12/18 02:05:41;;;;;;;;;;;;;;;0.29;100.00;98289.34;5067287;28;19968;-69
2023/12/18 02:08:07;;;;;;;;;;;;;;;0.26;100.00;98286.97;5066937;28;19962;-69
2023/12/18 02:10:34;;;;;;;;;;;;;;;0.25;100.00;98277.56;5067125;28;19958;-71
2023/12/18 02:13:00;;;;;;;;;;;;;;;0.23;100.00;98282.00;5066586;28;19959;-71
2023/12/18 02:15:26;;;;;;;;;;;;;;;0.22;100.00;98280.38;5067073;28;20134;-72
2023/12/18 02:17:52;;;;;;;;;;;;;;;0.19;100.00;98287.41;5066954;28;19965;-71
2023/12/18 02:20:17;;;;;;;;;;;;;;;0.17;100.00;98283.28;5066905;28;19957;-71
2023/12/18 02:22:52;;;;;;;;;;;;;;;0.16;100.00;98284.22;5066897;28;20002;-72
2023/12/18 02:25:18;;;;;;;;;;;;;;;0.13;100.00;98280.09;5066981;28;20145;-74
2023/12/18 02:27:45;;;;;;;;;;;;;;;0.11;100.00;98281.94;5067027;28;19969;-71
2023/12/18 02:30:19;;;;;;;;;;;;;;;0.08;100.00;98284.72;5066868;28;19952;-71
2023/12/18 02:32:45;;;;;;;;;;;;;;;0.06;100.00;98276.28;5065761;28;20294;-71
2023/12/18 02:35:11;;;;;;;;;;;;;;;0.04;100.00;98278.13;5066403;28;19956;-70
2023/12/18 02:37:37;;;;;;;;;;;;;;;0.03;100.00;98279.06;5066109;28;19962;-71
2023/12/18 02:40:03;;;;;;;;;;;;;;;0.01;100.00;98275.78;5065831;28;19956;-70
2023/12/18 02:42:29;;;;;;;;;;;;;;;0.00;100.00;98284.47;5066615;28;20244;-78
2023/12/18 02:44:55;;;;;;;;;;;;;;;-0.01;100.00;98280.22;5066680;28;19994;-74
2023/12/18 02:47:21;;;;;;;;;;;;;;;-0.03;100.00;98280.31;5065816;28;19964;-80
2023/12/18 02:49:47;;;;;;;;;;;;;;;-0.03;100.00;98274.34;5066417;28;20227;-79
2023/12/18 02:52:13;;;;;;;;;;;;;;;-0.05;100.00;98274.44;5065797;28;19959;-79
2023/12/18 02:54:39;;;;;;;;;;;;;;;-0.08;100.00;98272.09;5066288;28;19946;-79
2023/12/18 02:57:05;;;;;;;;;;;;;;;-0.10;100.00;98276.53;5066494;28;20096;-80
2023/12/18 02:59:30;;;;;;;;;;;;;;;-0.13;100.00;98268.97;5065729;28;19975;-80
2023/12/18 03:01:57;;;;;;;;;;;;;;;-0.16;100.00;98269.19;5066309;28;19961;-74
2023/12/18 03:04:22;;;;;;;;;;;;;;;-0.17;100.00;98261.56;5065921;28;19955;-74
2023/12/18 03:06:48;;;;;;;;;;;;;;;-0.17;100.00;98261.56;5066355;28;20017;-74
2023/12/18 03:09:14;;;;;;;;;;;;;;;-0.18;100.00;98262.50;5065771;28;19963;-74
2023/12/18 03:11:41;;;;;;;;;;;;;;;-0.17;100.00;98256.41;5065055;28;19967;-74
2023/12/18 03:14:07;;;;;;;;;;;;;;;-0.14;100.00;98256.22;5065678;28;19966;-74
2023/12/18 03:16:33;;;;;;;;;;;;;;;-0.13;100.00;98258.66;5065894;28;19958;-75
2023/12/18 03:18:59;;;;;;;;;;;;;;;-0.11;100.00;98253.41;5065892;28;19962;-74
2023/12/18 03:21:25;;;;;;;;;;;;;;;-0.08;100.00;98255.78;5065893;28;19960;-81
2023/12/18 03:23:51;;;;;;;;;;;;;;;-0.07;100.00;98253.09;5065307;28;20004;-71
2023/12/18 03:26:16;;;;;;;;;;;;;;;-0.05;100.00;98242.66;5065798;28;20014;-71
2023/12/18 03:28:43;;;;;;;;;;;;;;;-0.04;100.00;98252.06;5065714;28;19945;-70
2023/12/18 03:31:11;;;;;;;;;;;;;;;-0.02;100.00;98245.06;5065636;28;19973;-70
2023/12/18 03:33:38;;;;;;;;;;;;;;;-0.01;100.00;98249.25;5065151;28;19965;-70
2023/12/18 03:36:04;;;;;;;;;;;;;;;0.03;100.00;98244.72;5065495;28;19961;-71
2023/12/18 03:38:30;;;;;;;;;;;;;;;0.07;100.00;98248.75;5064978;28;19957;-84
2023/12/18 03:40:56;;;;;;;;;;;;;;;0.08;100.00;98237.47;5065520;28;19955;-72
2023/12/18 03:43:23;;;;;;;;;;;;;;;0.09;100.00;98239.97;5065420;28;19965;-70
2023/12/18 03:45:49;;;;;;;;;;;;;;;0.10;100.00;98244.16;5065295;28;19959;-70
2023/12/18 03:48:15;;;;;;;;;;;;;;;0.09;100.00;98234.78;5065387;28;19961;-70
2023/12/18 03:50:42;;;;;;;;;;;;;;;0.08;100.00;98227.97;5065196;28;19957;-71
2023/12/18 03:53:08;;;;;;;;;;;;;;;0.08;100.00;98235.72;5064692;28;19968;-70
2023/12/18 03:55:34;;;;;;;;;;;;;;;0.07;100.00;98228.09;5064685;28;20136;-71
2023/12/18 03:58:00;;;;;;;;;;;;;;;0.07;100.00;98230.69;5064791;28;19959;-84
2023/12/18 04:00:26;;;;;;;;;;;;;;;0.06;100.00;98229.03;5064740;28;20163;-69
2023/12/18 04:02:52;;;;;;;;;;;;;;;0.06;100.00;98234.19;5064782;28;19958;-68
2023/12/18 04:05:18;;;;;;;;;;;;;;;0.05;100.00;98232.53;5064805;28;19955;-69
2023/12/18 04:07:44;;;;;;;;;;;;;;;0.02;100.00;98222.44;5064396;28;19953;-69
2023/12/18 04:10:10;;;;;;;;;;;;;;;-0.01;100.00;98226.88;5064719;28;19955;-69
2023/12/18 04:12:36;;;;;;;;;;;;;;;0.01;100.00;98226.78;5064656;28;20019;-69
2023/12/18 04:15:02;;;;;;;;;;;;;;;0.00;100.00;98227.72;5064943;28;19956;-71
2023/12/18 04:17:28;;;;;;;;;;;;;;;-0.01;100.00;98234.59;5064423;28;19960;-71
2023/12/18 04:19:54;;;;;;;;;;;;;;;0.01;100.00;98221.59;5064751;28;19960;-81
2023/12/18 04:22:19;;;;;;;;;;;;;;;0.02;100.00;98223.25;5064722;28;19956;-80
2023/12/18 04:24:45;;;;;;;;;;;;;;;0.02;100.00;98215.50;5064452;28;19961;-80
2023/12/18 04:27:11;;;;;;;;;;;;;;;0.03;100.00;98206.84;5064757;28;19954;-80
2023/12/18 04:29:37;;;;;;;;;;;;;;;0.05;100.00;98224.81;5064256;28;19970;-81
2023/12/18 04:32:04;;;;;;;;;;;;;;;0.05;100.00;98217.88;5064568;28;19952;-81
2023/12/18 04:34:30;;;;;;;;;;;;;;;0.07;100.00;98213.44;5064123;28;20265;-71
2023/12/18 04:36:56;;;;;;;;;;;;;;;0.06;100.00;98213.53;5064226;28;20019;-80
2023/12/18 04:39:22;;;;;;;;;;;;;;;0.06;100.00;98209.19;5064407;28;19999;-80
2023/12/18 04:41:48;;;;;;;;;;;;;;;0.05;100.00;98207.56;5064228;28;19963;-79
2023/12/18 04:44:14;;;;;;;;;;;;;;;0.07;100.00;98210.03;5064237;28;20136;-80
2023/12/18 04:46:40;;;;;;;;;;;;;;;0.06;100.00;98214.34;5063862;28;20313;-80
2023/12/18 04:49:06;;;;;;;;;;;;;;;0.04;100.00;98212.81;5064347;28;19959;-80
2023/12/18 04:51:32;;;;;;;;;;;;;;;0.04;100.00;98213.63;5064972;28;19955;-71
2023/12/18 04:53:58;;;;;;;;;;;;;;;0.05;100.00;98215.31;5063666;28;19963;-71
2023/12/18 04:56:24;;;;;;;;;;;;;;;0.07;100.00;98217.78;5064419;28;19964;-69
2023/12/18 04:58:50;;;;;;;;;;;;;;;0.04;100.00;98218.81;5064232;28;19967;-69
2023/12/18 05:01:16;;;;;;;;;;;;;;;0.05;100.00;98211.91;5063704;28;20043;-69
2023/12/18 05:03:42;;;;;;;;;;;;;;;0.03;100.00;98213.78;5063771;28;19955;-69
2023/12/18 05:06:17;;;;;;;;;;;;;;;0.01;100.00;98216.44;5064107;28;19961;-69
2023/12/18 05:08:43;;;;;;;;;;;;;;;-0.01;100.00;98213.16;5063766;28;19952;-69
2023/12/18 05:11:09;;;;;;;;;;;;;;;-0.03;100.00;98223.56;5064119;28;19997;-83
2023/12/18 05:13:34;;;;;;;;;;;;;;;-0.06;100.00;98217.81;5063808;28;20019;-72
2023/12/18 05:16:00;;;;;;;;;;;;;;;-0.08;100.00;98217.94;5064041;28;19963;-71
2023/12/18 05:18:26;;;;;;;;;;;;;;;-0.08;100.00;98212.75;5064015;28;19939;-72
2023/12/18 05:20:53;;;;;;;;;;;;;;;-0.10;100.00;98219.78;5063506;28;20242;-72
2023/12/18 05:23:19;;;;;;;;;;;;;;;-0.11;100.00;98222.47;5063965;28;19968;-72
2023/12/18 05:25:44;;;;;;;;;;;;;;;-0.13;100.00;98221.75;5064073;28;19948;-72
2023/12/18 05:28:10;;;;;;;;;;;;;;;-0.16;100.00;98212.47;5064205;28;19961;-72
2023/12/18 05:30:36;;;;;;;;;;;;;;;-0.15;100.00;98219.25;5064092;28;19952;-84
2023/12/18 05:33:02;;;;;;;;;;;;;;;-0.17;100.00;98223.69;5063546;28;19970;-81
2023/12/18 05:35:28;;;;;;;;;;;;;;;-0.18;100.00;98211.75;5063543;28;19990;-81
2023/12/18 05:37:54;;;;;;;;;;;;;;;-0.19;100.00;98214.44;5063635;28;19995;-81
2023/12/18 05:40:20;;;;;;;;;;;;;;;-0.20;100.00;98213.63;5063645;28;20018;-81
2023/12/18 05:42:45;;;;;;;;;;;;;;;-0.21;100.00;98220.53;5063670;28;19960;-81
2023/12/18 05:45:11;;;;;;;;;;;;;;;-0.20;100.00;98223.94;5063760;28;19952;-81
2023/12/18 05:47:37;;;;;;;;;;;;;;;-0.19;100.00;98212.66;5063719;28;19956;-74
2023/12/18 05:50:03;;;;;;;;;;;;;;;-0.19;100.00;98211.84;5063651;28;19955;-70
2023/12/18 05:52:29;;;;;;;;;;;;;;;-0.19;100.00;98210.09;5063204;28;20233;-69
2023/12/18 05:54:55;;;;;;;;;;;;;;;-0.18;100.00;98213.50;5063123;28;19979;-68
2023/12/18 05:57:20;;;;;;;;;;;;;;;-0.17;100.00;98212.56;5063778;28;20138;-69
2023/12/18 05:59:46;;;;;;;;;;;;;;;-0.16;100.00;98211.66;5063913;28;20023;-69
2023/12/18 06:02:12;;;;;;;;;;;;;;;-0.16;100.00;98209.06;5063565;28;19967;-69
2023/12/18 06:04:41;;;;;;;;;;;;;;;-0.16;100.00;98211.66;5063268;28;20269;-69
2023/12/18 06:07:08;;;;;;;;;;;;;;;-0.16;100.00;98212.47;5063634;28;19983;-71
2023/12/18 06:09:33;;;;;;;;;;;;;;;-0.17;100.00;98208.22;5063321;28;19964;-72
2023/12/18 06:11:59;;;;;;;;;;;;;;;-0.18;100.00;98210.94;5063516;28;20005;-72
2023/12/18 06:14:25;;;;;;;;;;;;;;;-0.17;100.00;98213.38;5064826;28;19970;-71
2023/12/18 06:16:51;;;;;;;;;;;;;;;-0.16;100.00;98214.22;5066877;28;20025;-72
2023/12/18 06:19:17;;;;;;;;;;;;;;;-0.14;100.00;98209.78;5067117;28;19954;-71
2023/12/18 06:21:43;;;;;;;;;;;;;;;-0.14;100.00;98212.38;5066618;28;19939;-72
2023/12/18 06:24:09;;;;;;;;;;;;;;;-0.16;100.00;98207.31;5067224;28;20067;-69
2023/12/18 06:26:34;;;;;;;;;;;;;;;-0.17;100.00;98212.56;5066930;28;20300;-74
2023/12/18 06:29:00;;;;;;;;;;;;;;;-0.19;100.00;98211.84;5067228;28;20067;-81
2023/12/18 06:31:26;;;;;;;;;;;;;;;-0.20;100.00;98213.63;5066660;28;19958;-80
2023/12/18 06:33:52;;;;;;;;;;;;;;;-0.20;100.00;98223.94;5066942;28;20142;-80
2023/12/18 06:36:19;;;;;;;;;;;;;;;-0.19;100.00;98222.97;5066702;28;19958;-81
2023/12/18 06:38:45;;;;;;;;;;;;;;;-0.19;100.00;98219.59;5066670;28;19956;-81
2023/12/18 06:41:11;;;;;;;;;;;;;;;-0.20;100.00;98213.63;5066686;28;20124;-81
2023/12/18 06:43:37;;;;;;;;;;;;;;;-0.21;100.00;98220.53;5066622;28;20240;-81
2023/12/18 06:46:04;;;;;;;;;;;;;;;-0.20;100.00;98226.50;5066769;28;19952;-72
2023/12/18 06:48:30;;;;;;;;;;;;;;;-0.20;100.00;98231.66;5066632;28;20153;-72
2023/12/18 06:50:56;;;;;;;;;;;;;;;-0.19;100.00;98233.28;5066108;28;20106;-72
2023/12/18 06:53:22;;;;;;;;;;;;;;;-0.19;100.00;98225.56;5066789;28;19961;-72
2023/12/18 06:55:48;;;;;;;;;;;;;;;-0.18;100.00;98232.38;5066781;28;19956;-72
2023/12/18 06:58:13;;;;;;;;;;;;;;;-0.16;100.00;98234.88;5066504;28;19956;-72
2023/12/18 07:00:40;;;;;;;;;;;;;;;-0.16;100.00;98237.44;5048361;28;20259;-71
2023/12/18 07:03:08;;;;;;;;;;;;;;;-0.14;100.00;98231.25;5065578;28;20462;-72
2023/12/18 07:05:34;;;;;;;;;;;;;;;-0.16;100.00;98230.53;5066010;28;19962;-81
2023/12/18 07:08:00;;;;;;;;;;;;;;;-0.17;100.00;98239.19;5066036;28;19972;-81
2023/12/18 07:10:26;;;;;;;;;;;;;;;-0.17;100.00;98235.78;5066170;28;20217;-81
2023/12/18 07:12:52;;;;;;;;;;;;;;;-0.17;100.00;98235.78;5066122;28;19959;-81
2023/12/18 07:15:19;;;;;;;;;;;;;;;-0.16;100.00;98235.69;5065887;28;19953;-82
2023/12/18 07:17:45;;;;;;;;;;;;;;;-0.16;100.00;98233.09;5066090;28;19963;-79
2023/12/18 07:20:11;;;;;;;;;;;;;;;-0.14;100.00;98227.84;5065602;28;19941;-72
2023/12/18 07:22:39;;;;;;;;;;;;;;;-0.13;100.00;98234.63;5065770;28;19955;-71
2023/12/18 07:25:09;;;;;;;;;;;;;;;-0.13;100.00;98234.63;5065173;28;19963;-70
2023/12/18 07:27:37;;;;;;;;;;;;;;;-0.14;100.00;98225.28;5065485;28;19968;-70
2023/12/18 07:30:03;;;;;;;;;;;;;;;-0.14;100.00;98222.69;5066027;28;19955;-70
2023/12/18 07:32:30;;;;;;;;;;;;;;;-0.16;100.00;98229.72;5065559;28;20120;-71
2023/12/18 07:34:59;;;;;;;;;;;;;;;-0.12;100.00;98221.66;5065604;28;20268;-70
2023/12/18 07:37:29;;;;;;;;;;;;;;;-0.09;100.00;98228.34;5065642;28;19963;-74
2023/12/18 07:39:55;;;;;;;;;;;;;;;-0.06;100.00;98226.38;5065798;28;20115;-72
2023/12/18 07:42:21;;;;;;;;;;;;;;;-0.04;100.00;98223.69;5065619;28;19969;-71
2023/12/18 07:44:47;;;;;;;;;;;;;;;-0.01;100.00;98228.63;5065022;28;19951;-70
2023/12/18 07:47:13;;;;;;;;;;;;;;;0.02;100.00;98235.31;5065710;28;19945;-70
2023/12/18 07:49:39;;;;;;;;;;;;;;;0.05;100.00;98229.97;5065741;28;19958;-70
2023/12/18 07:52:05;;;;;;;;;;;;;;;0.08;100.00;98229.72;5065256;28;19962;-70
2023/12/18 07:54:31;;;;;;;;;;;;;;;0.15;100.00;98234.38;5065343;28;19963;-70
2023/12/18 07:56:57;;;;;;;;;;;;;;;0.28;100.00;98233.50;5065559;28;19959;-71
2023/12/18 07:59:23;;;;;;;;;;;;;;;0.46;100.00;98231.34;5065088;28;19965;-81
2023/12/18 08:01:48;;;;;;;;;;;;;;;0.65;100.00;98225.69;5065389;28;19955;-81
2023/12/18 08:04:14;;;;;;;;;;;;;;;0.87;100.00;98218.03;5065070;28;19978;-80
2023/12/18 08:06:40;;;;;;;;;;;;;;;1.10;100.00;98218.91;5065257;28;19993;-81
2023/12/18 08:09:06;;;;;;;;;;;;;;;1.33;100.00;98216.38;5064964;28;20012;-80
2023/12/18 08:11:33;;;;;;;;;;;;;;;1.52;100.00;98206.25;5065308;28;20129;-80
2023/12/18 08:13:59;;;;;;;;;;;;;;;1.65;100.00;98213.91;5065115;28;19961;-72
2023/12/18 08:16:25;;;;;;;;;;;;;;;1.81;100.00;98216.16;5065077;28;19957;-74
2023/12/18 08:18:51;;;;;;;;;;;;;;;2.02;100.00;98213.66;5064709;28;19972;-68
2023/12/18 08:21:17;;;;;;;;;;;;;;;2.20;100.00;98201.81;5064387;28;20028;-68
2023/12/18 08:23:44;;;;;;;;;;;;;;;2.36;100.00;98209.22;5064554;28;19998;-67
2023/12/18 08:26:10;;;;;;;;;;;;;;;2.55;100.00;98211.16;5064734;28;20139;-68
2023/12/18 08:28:37;;;;;;;;;;;;;;;2.65;100.00;98182.75;5064512;28;19959;-68
2023/12/18 08:31:04;;;;;;;;;;;;;;;2.80;100.00;98206.56;5064112;28;20160;-67
2023/12/18 08:33:30;;;;;;;;;;;;;;;2.93;100.00;98191.66;5064683;28;19967;-79
2023/12/18 08:35:55;;;;;;;;;;;;;;;3.04;100.00;98193.34;5064052;28;19964;-70
2023/12/18 08:38:21;;;;;;;;;;;;;;;3.18;100.00;98193.03;5064448;28;19955;-71
2023/12/18 08:40:47;;;;;;;;;;;;;;;3.30;100.00;98180.81;5064630;28;20288;-71
2023/12/18 08:43:13;;;;;;;;;;;;;;;3.43;100.00;98175.44;5064573;28;19961;-71
2023/12/18 08:45:39;;;;;;;;;;;;;;;3.52;100.00;98160.84;5064479;28;19951;-71
2023/12/18 08:48:05;;;;;;;;;;;;;;;3.60;100.00;98168.81;5064733;28;19992;-72
2023/12/18 08:50:31;;;;;;;;;;;;;;;3.73;100.00;98177.16;5064079;28;19999;-71
2023/12/18 08:52:57;;;;;;;;;;;;;;;3.88;100.00;98171.63;5064720;28;20168;-76
2023/12/18 08:55:22;;;;;;;;;;;;;;;4.01;100.00;98167.84;5064603;28;19966;-74
2023/12/18 08:57:48;;;;;;;;;;;;;;;4.08;100.00;98136.94;5064408;28;20128;-74
2023/12/18 09:00:14;;;;;;;;;;;;;;;4.10;100.00;98149.81;5064106;28;19960;-74
2023/12/18 09:02:40;;;;;;;;;;;;;;;4.10;100.00;98149.81;5064140;28;20137;-74
2023/12/18 09:05:06;;;;;;;;;;;;;;;4.18;100.00;98170.69;5064103;28;19997;-74
2023/12/18 09:07:32;;;;;;;;;;;;;;;4.21;100.00;98155.69;5064589;28;20105;-75
2023/12/18 09:09:58;;;;;;;;;;;;;;;4.27;100.00;98175.09;5064167;28;19961;-70
2023/12/18 09:12:24;;;;;;;;;;;;;;;4.38;100.00;98176.75;5064165;28;19980;-71
2023/12/18 09:14:50;;;;;;;;;;;;;;;4.49;100.00;98174.00;5064085;28;19960;-70
2023/12/18 09:17:15;;;;;;;;;;;;;;;4.62;100.00;98184.97;5063758;28;20018;-70
2023/12/18 09:19:41;;;;;;;;;;;;;;;4.77;100.00;98180.19;5064430;28;19958;-70
2023/12/18 09:22:07;;;;;;;;;;;;;;;4.93;100.00;98170.97;5064141;28;20251;-71
2023/12/18 09:24:33;;;;;;;;;;;;;;;5.08;100.00;98162.63;5063764;28;19957;-71
2023/12/18 09:26:59;;;;;;;;;;;;;;;5.24;100.00;98162.00;5063945;28;20008;-72
2023/12/18 09:29:25;;;;;;;;;;;;;;;5.41;100.00;98159.63;5063684;28;19953;-73
2023/12/18 09:31:51;;;;;;;;;;;;;;;5.51;100.00;98144.81;5064102;28;20045;-71
2023/12/18 09:34:17;;;;;;;;;;;;;;;5.60;100.00;98143.13;5063854;28;20004;-71
2023/12/18 09:36:43;;;;;;;;;;;;;;;5.69;100.00;98150.88;5063841;28;19962;-71
2023/12/18 09:39:09;;;;;;;;;;;;;;;5.80;100.00;98167.28;5063532;28;19962;-72
2023/12/18 09:41:35;;;;;;;;;;;;;;;5.85;100.00;98129.41;5063914;28;19956;-72
2023/12/18 09:44:01;;;;;;;;;;;;;;;5.94;100.00;98126.91;5063974;28;19959;-72
2023/12/18 09:46:27;;;;;;;;;;;;;;;5.93;100.00;98120.06;5063855;28;19961;-73
2023/12/18 09:48:53;;;;;;;;;;;;;;;5.95;100.00;98116.38;5066782;28;20303;-74
2023/12/18 09:51:25;;;;;;;;;;;;;;;5.98;100.00;98131.69;5068218;28;19957;-74
2023/12/18 09:53:52;;;;;;;;;;;;;;;6.10;100.00;98114.06;5067718;28;19968;-74
2023/12/18 09:56:20;;;;;;;;;;;;;;;6.26;100.00;98126.44;5067330;28;19962;-73
2023/12/18 09:58:45;;;;;;;;;;;;;;;6.42;100.00;98129.19;5067394;28;19961;-74
2023/12/18 10:01:12;;;;;;;;;;;;;;;6.49;100.00;98119.00;5067404;28;20024;-73
2023/12/18 10:03:38;;;;;;;;;;;;;;;6.61;100.00;98119.56;5067448;28;19953;-73
2023/12/18 10:06:04;;;;;;;;;;;;;;;6.66;100.00;98099.91;5067544;28;19954;-71
2023/12/18 10:08:30;;;;;;;;;;;;;;;6.68;100.00;98107.56;5066958;28;19955;-71
2023/12/18 10:10:56;;;;;;;;;;;;;;;6.76;100.00;98078.09;5067393;28;20163;-71
2023/12/18 10:13:22;;;;;;;;;;;;;;;6.81;100.00;98086.31;5067360;28;19960;-71
2023/12/18 10:15:48;;;;;;;;;;;;;;;6.91;100.00;98094.84;5067111;28;20114;-71
2023/12/18 10:18:16;;;;;;;;;;;;;;;6.98;100.00;98082.00;5066867;28;20243;-71
2023/12/18 10:20:42;;;;;;;;;;;;;;;7.09;100.00;98086.94;5067411;28;19955;-71
2023/12/18 10:23:08;;;;;;;;;;;;;;;7.16;100.00;98050.63;5067032;28;20038;-72
2023/12/18 10:25:35;;;;;;;;;;;;;;;7.17;100.00;98073.13;5066882;28;20134;-71
2023/12/18 10:28:01;;;;;;;;;;;;;;;7.25;100.00;98057.53;5066837;28;19964;-71
2023/12/18 10:30:29;;;;;;;;;;;;;;;7.34;100.00;98060.97;5066804;28;19961;-71
2023/12/18 10:32:56;;;;;;;;;;;;;;;7.37;100.00;98034.53;5066806;28;20151;-72
2023/12/18 10:35:22;;;;;;;;;;;;;;;7.39;100.00;98041.25;5066686;28;19970;-72
2023/12/18 10:37:51;;;;;;;;;;;;;;;7.43;100.00;98041.75;5066355;28;19961;-72
2023/12/18 10:40:22;;;;;;;;;;;;;;;7.46;100.00;98054.50;5066875;28;20128;-72
2023/12/18 10:43:12;;;;;;;;;;;;;;;7.57;100.00;98019.44;5066834;28;19952;-74
2023/12/18 10:45:38;;;;;;;;;;;;;;;7.66;100.00;98021.09;5055906;28;20159;-75
2023/12/18 10:48:05;;;;;;;;;;;;;;;7.67;100.00;98027.97;5066393;28;19958;-75
2023/12/18 10:50:32;;;;;;;;;;;;;;;7.68;100.00;98000.84;5066585;28;19965;-75
2023/12/18 10:52:59;;;;;;;;;;;;;;;7.71;100.00;97993.53;5066441;28;19960;-75
2023/12/18 10:55:26;;;;;;;;;;;;;;;7.70;100.00;97975.41;5066363;28;20145;-74
2023/12/18 10:57:52;;;;;;;;;;;;;;;7.62;100.00;97985.81;5066416;28;19967;-75
2023/12/18 11:00:18;;;;;;;;;;;;;;;7.63;100.00;97983.06;5065744;28;19962;-71
2023/12/18 11:02:46;;;;;;;;;;;;;;;7.50;100.00;97980.13;5066519;28;20134;-75
2023/12/18 11:05:12;;;;;;;;;;;;;;;7.45;100.00;97967.50;5066338;28;19970;-75
2023/12/18 11:07:40;;;;;;;;;;;;;;;7.46;100.00;97970.97;5066299;28;19937;-75
2023/12/18 11:10:06;;;;;;;;;;;;;;;7.51;100.00;97977.31;5066695;28;19963;-75
2023/12/18 11:12:33;;;;;;;;;;;;;;;7.69;100.00;97989.44;5065937;28;20151;-75
2023/12/18 11:15:22;;;;;;;;;;;;;;;7.76;100.00;97956.47;5065950;28;19969;-75
2023/12/18 11:17:56;;;;;;;;;;;;;;;7.79;100.00;97964.00;5065704;28;19968;-75
2023/12/18 11:20:41;;;;;;;;;;;;;;;7.86;100.00;97954.50;5066181;28;20150;-71
2023/12/18 11:23:09;;;;;;;;;;;;;;;7.89;100.00;97938.50;5066117;28;19956;-71
2023/12/18 11:25:35;;;;;;;;;;;;;;;8.02;100.00;97956.31;5066257;28;19951;-72
2023/12/18 11:28:02;;;;;;;;;;;;;;;8.20;100.00;97961.34;5066299;28;19953;-71
2023/12/18 11:30:29;;;;;;;;;;;;;;;8.31;100.00;97950.53;5065925;28;19958;-71
2023/12/18 11:32:58;;;;;;;;;;;;;;;8.36;100.00;97926.53;5065519;28;19963;-71
2023/12/18 11:35:28;;;;;;;;;;;;;;;8.31;98.92;97893.03;5065244;28;20043;-71
2023/12/18 11:38:08;;;;;;;;;;;;;;;8.32;100.00;97912.97;5065569;28;20269;-74
2023/12/18 11:40:35;;;;;;;;;;;;;;;8.36;100.00;97934.38;5065570;28;19956;-75
2023/12/18 11:43:02;;;;;;;;;;;;;;;8.49;100.00;97910.38;5065812;28;19966;-75
2023/12/18 11:45:28;;;;;;;;;;;;;;;8.48;100.00;97922.63;5065658;28;19952;-75
2023/12/18 11:47:58;;;;;;;;;;;;;;;8.37;99.49;97880.31;5065583;28;19969;-75
2023/12/18 11:50:24;;;;;;;;;;;;;;;8.33;100.00;97888.47;5065153;28;19941;-75
2023/12/18 11:52:50;;;;;;;;;;;;;;;8.39;100.00;97896.63;5065120;28;19963;-75
2023/12/18 11:55:36;;;;;;;;;;;;;;;8.52;100.00;97918.69;5065608;28;19975;-75
2023/12/18 11:58:02;;;;;;;;;;;;;;;8.47;100.00;97899.25;5065090;28;19965;-73
2023/12/18 12:00:32;;;;;;;;;;;;;;;8.46;100.00;97889.75;5064949;28;19951;-71
2023/12/18 12:02:58;;;;;;;;;;;;;;;8.42;100.00;97901.53;5065450;28;19968;-71
2023/12/18 12:05:24;;;;;;;;;;;;;;;8.44;100.00;97896.97;5064971;28;19952;-71
2023/12/18 12:07:50;;;;;;;;;;;;;;;8.46;99.58;97854.00;5065127;28;19966;-71
2023/12/18 12:10:16;;;;;;;;;;;;;;;8.38;100.00;97868.84;5065053;28;19954;-71
2023/12/18 12:12:43;;;;;;;;;;;;;;;8.29;100.00;97861.06;5064232;28;19962;-71
2023/12/18 12:15:09;;;;;;;;;;;;;;;8.25;100.00;97896.34;5064643;28;20145;-72
2023/12/18 12:17:35;;;;;;;;;;;;;;;8.23;100.00;97884.41;5064580;28;19965;-72
2023/12/18 12:20:01;;;;;;;;;;;;;;;8.17;100.00;97880.69;5065205;28;19973;-71
2023/12/18 12:22:29;;;;;;;;;;;;;;;8.20;100.00;97880.34;5064528;28;19959;-71
2023/12/18 12:24:54;;;;;;;;;;;;;;;8.19;100.00;97877.88;5064606;28;19969;-71
2023/12/18 12:27:20;;;;;;;;;;;;;;;8.27;100.00;97883.09;5064878;28;19954;-71
2023/12/18 12:29:46;;;;;;;;;;;;;;;8.34;100.00;97873.63;5064615;28;19969;-71
2023/12/18 12:32:13;;;;;;;;;;;;;;;8.35;100.00;97864.78;5064671;28;19989;-73
2023/12/18 12:34:39;;;;;;;;;;;;;;;8.37;100.00;97864.63;5064761;28;20153;-71
2023/12/18 12:37:05;;;;;;;;;;;;;;;8.43;100.00;97872.63;5064662;28;20014;-75
2023/12/18 12:39:34;;;;;;;;;;;;;;;8.44;100.00;97853.34;5064722;28;20046;-75